Time;durP1;ratioP1;P1;durP2;ratioP2;P2;SDS_P1;SDS_P2;PMS_P1;PMS_P2;Temp;Humidity;BMP_temperature;BMP_pressure;BME280_temperature;BME280_humidity;BME280_pressure;Samples;Min_cycle;Max_cycle;Signal;HPM_P1;HPM_P2
2023/05/16 00:00:52;;;;;;;29.27;23.23;;;11.50;99.90;;;10.67;100.00;97539.88;5007798;28;20110;-75
2023/05/16 00:03:19;;;;;;;30.67;24.55;;;11.50;99.90;;;10.61;100.00;97533.22;4991795;28;20042;-74
2023/05/16 00:05:47;;;;;;;28.80;23.20;;;11.60;99.90;;;10.63;100.00;97533.16;5005825;28;20056;-75
2023/05/16 00:08:14;;;;;;;29.60;23.40;;;11.60;99.90;;;10.63;100.00;97528.78;4994188;28;20057;-75
2023/05/16 00:10:41;;;;;;;30.48;24.08;;;11.60;99.90;;;10.68;100.00;97523.41;4974522;28;20046;-74
2023/05/16 00:13:09;;;;;;;26.13;21.88;;;11.50;99.90;;;10.61;100.00;97529.78;4989037;28;20078;-75
2023/05/16 00:15:37;;;;;;;29.48;23.98;;;11.50;99.90;;;10.59;100.00;97537.63;4976781;28;20080;-74
2023/05/16 00:18:04;;;;;;;29.42;22.55;;;11.50;99.90;;;10.57;100.00;97541.19;4991503;28;20541;-75
2023/05/16 00:20:31;;;;;;;26.63;21.98;;;11.50;99.90;;;10.60;100.00;97544.47;5005603;28;20110;-74
2023/05/16 00:23:01;;;;;;;30.60;24.15;;;11.50;99.90;;;10.62;100.00;97544.44;4975508;28;20053;-75
2023/05/16 00:25:28;;;;;;;31.67;24.40;;;11.50;99.90;;;10.63;100.00;97541.78;4988023;28;20081;-74
2023/05/16 00:27:55;;;;;;;30.48;23.92;;;11.40;99.90;;;10.64;100.00;97537.41;4991235;28;20050;-75
2023/05/16 00:30:22;;;;;;;30.92;24.65;;;11.50;99.90;;;10.62;100.00;97537.47;4991793;28;20050;-74
2023/05/16 00:32:50;;;;;;;27.98;23.08;;;11.50;99.90;;;10.63;100.00;97538.34;4990680;28;20131;-75
2023/05/16 00:35:17;;;;;;;30.92;24.77;;;11.50;99.90;;;10.57;100.00;97534.25;4998415;28;20046;-75
2023/05/16 00:37:44;;;;;;;27.83;21.92;;;11.50;99.90;;;10.58;100.00;97535.94;4990754;28;20054;-74
2023/05/16 00:40:12;;;;;;;26.65;22.08;;;11.50;99.90;;;10.62;100.00;97541.84;4990243;28;20120;-74
2023/05/16 00:42:39;;;;;;;29.98;22.48;;;11.50;99.90;;;10.61;100.00;97538.41;4994086;28;20165;-75
2023/05/16 00:45:07;;;;;;;27.05;21.95;;;11.50;99.90;;;10.59;100.00;97544.56;5008003;28;20049;-74
2023/05/16 00:47:35;;;;;;;27.10;22.35;;;11.50;99.90;;;10.58;100.00;97537.69;4967990;28;20133;-75
2023/05/16 00:50:03;;;;;;;28.42;22.35;;;11.50;99.90;;;10.64;100.00;97540.00;4993324;28;20053;-75
2023/05/16 00:52:32;;;;;;;28.15;23.05;;;11.50;99.90;;;10.64;100.00;97533.06;5009076;28;20046;-74
2023/05/16 00:55:03;;;;;;;;;;;11.50;99.90;;;10.58;100.00;97541.13;5013464;28;20141;-74
2023/05/16 00:57:31;;;;;;;27.48;19.77;;;11.50;99.90;;;10.58;100.00;97535.94;5012428;28;19972;-74
2023/05/16 00:59:58;;;;;;;27.67;23.05;;;11.50;99.90;;;10.60;100.00;97541.88;5007582;28;20635;-75
2023/05/16 01:02:29;;;;;;;26.92;22.15;;;11.50;99.90;;;10.60;100.00;97541.88;4994667;28;20053;-74
2023/05/16 01:04:57;;;;;;;24.67;21.25;;;11.50;99.90;;;10.52;100.00;97541.41;4992771;28;20049;-74
2023/05/16 01:07:24;;;;;;;30.42;22.88;;;11.50;99.90;;;10.56;100.00;97536.91;4991349;28;20477;-75
2023/05/16 01:09:52;;;;;;;24.17;20.10;;;11.50;99.90;;;10.51;100.00;97542.28;4967686;28;20046;-75
2023/05/16 01:12:32;;;;;;;27.38;22.25;;;11.50;99.90;;;10.48;100.00;97545.03;5009293;28;20050;-75
2023/05/16 01:15:24;;;;;;;23.80;20.88;;;11.40;99.90;;;10.50;100.00;97558.78;4980167;28;20049;-74
2023/05/16 01:18:13;;;;;;;24.08;19.40;;;11.40;99.90;;;10.48;100.00;97552.81;4992909;28;20051;-74
2023/05/16 01:20:55;;;;;;;25.83;20.13;;;11.40;99.90;;;10.48;100.00;97555.41;5004081;28;20071;-75
2023/05/16 01:23:48;;;;;;;29.35;20.67;;;11.50;99.90;;;10.43;100.00;97554.75;4986359;28;20054;-75
2023/05/16 01:26:19;;;;;;;26.73;22.20;;;11.40;99.90;;;10.46;100.00;97568.44;4970429;28;20046;-74
2023/05/16 01:28:48;;;;;;;26.45;21.48;;;11.30;99.90;;;10.41;100.00;97569.56;4990820;28;20084;-75
2023/05/16 01:31:16;;;;;;;25.67;21.88;;;11.30;99.90;;;10.43;100.00;97571.16;4990789;28;20053;-74
2023/05/16 01:33:44;;;;;;;28.73;21.10;;;11.30;99.90;;;10.39;100.00;97568.78;4992395;28;20072;-74
2023/05/16 01:36:45;;;;;;;25.83;20.48;;;11.30;99.90;;;10.45;100.00;97574.53;4991455;28;20143;-75
2023/05/16 01:39:40;;;;;;;26.63;19.52;;;11.30;99.90;;;10.45;100.00;97576.31;5008237;28;20568;-75
2023/05/16 01:42:14;;;;;;;26.00;20.23;;;11.30;99.90;;;10.44;100.00;97582.38;5006648;28;20140;-75
2023/05/16 01:45:03;;;;;;;25.63;20.80;;;11.30;99.90;;;10.37;100.00;97583.56;4986357;28;20517;-75
2023/05/16 01:47:32;;;;;;;28.30;20.23;;;11.30;99.90;;;10.41;100.00;97591.16;4987750;28;20042;-75
2023/05/16 01:50:14;;;;;;;25.00;20.52;;;11.30;99.90;;;10.39;100.00;97584.34;4974034;28;20046;-74
2023/05/16 01:53:10;;;;;;;27.90;20.63;;;11.30;99.90;;;10.41;100.00;97583.34;5007879;28;20047;-74
2023/05/16 01:55:50;;;;;;;24.38;19.40;;;11.30;99.90;;;10.33;100.00;97584.59;4991140;28;20434;-75
2023/05/16 01:58:31;;;;;;;26.77;20.05;;;11.30;99.90;;;10.35;100.00;97583.59;4993565;28;20096;-74
2023/05/16 02:01:04;;;;;;;26.23;19.83;;;11.20;99.90;;;10.29;100.00;97590.81;4991342;28;20160;-74
2023/05/16 02:03:32;;;;;;;24.02;17.48;;;11.20;99.90;;;10.32;100.00;97591.53;4988611;28;20154;-74
2023/05/16 02:06:00;;;;;;;27.15;19.60;;;11.20;99.90;;;10.24;100.00;97578.84;4989833;28;20042;-74
2023/05/16 02:08:30;;;;;;;27.08;19.00;;;11.10;99.90;;;10.24;100.00;97585.75;4983735;28;20041;-75
2023/05/16 02:10:58;;;;;;;23.77;18.10;;;11.20;99.90;;;10.22;100.00;97585.84;4997702;28;20050;-74
2023/05/16 02:13:25;;;;;;;24.98;18.30;;;11.10;99.90;;;10.24;100.00;97578.84;4983334;28;20597;-74
2023/05/16 02:15:52;;;;;;;21.08;17.35;;;11.10;99.90;;;10.22;100.00;97579.81;5007028;28;20066;-74
2023/05/16 02:18:19;;;;;;;21.27;17.60;;;11.10;99.90;;;10.15;100.00;97583.53;5011956;28;20046;-74
2023/05/16 02:20:46;;;;;;;22.77;17.67;;;11.10;99.90;;;10.13;100.00;97583.63;4991672;28;20077;-74
2023/05/16 02:23:16;;;;;;;23.35;18.38;;;11.00;99.90;;;10.15;100.00;97578.34;4968803;28;20072;-74
2023/05/16 02:25:43;;;;;;;22.95;17.13;;;11.00;99.90;;;10.13;100.00;97580.19;5004305;28;20050;-74
2023/05/16 02:28:10;;;;;;;22.10;16.60;;;11.00;99.90;;;10.12;100.00;97571.56;5009761;28;20165;-75
2023/05/16 02:30:37;;;;;;;22.67;16.25;;;11.00;99.90;;;10.08;100.00;97582.13;5008841;28;20049;-73
2023/05/16 02:33:04;;;;;;;20.48;15.35;;;11.00;99.90;;;10.12;100.00;97575.91;4987892;28;20046;-74
2023/05/16 02:35:31;;;;;;;20.92;15.80;;;11.00;99.90;;;10.05;100.00;97583.09;4988896;28;20041;-74
2023/05/16 02:37:59;;;;;;;22.45;17.48;;;10.90;99.90;;;9.99;100.00;97570.34;5005662;28;20046;-74
2023/05/16 02:40:25;;;;;;;21.10;15.90;;;11.00;99.90;;;10.01;100.00;97573.72;4992152;28;20056;-74
2023/05/16 02:42:52;;;;;;;21.08;16.60;;;10.90;99.90;;;10.05;100.00;97572.72;4988775;28;20049;-74
2023/05/16 02:45:19;;;;;;;22.45;17.20;;;10.90;99.90;;;10.05;100.00;97578.72;4993149;28;20045;-74
2023/05/16 02:47:46;;;;;;;22.83;16.75;;;10.90;99.90;;;9.97;100.00;97575.63;5011069;28;20126;-74
2023/05/16 02:50:13;;;;;;;24.52;16.60;;;10.90;99.90;;;9.96;100.00;97571.31;4990157;28;20058;-74
2023/05/16 02:52:40;;;;;;;21.60;17.05;;;10.90;99.90;;;9.92;100.00;97580.16;4994265;28;20045;-75
2023/05/16 02:55:08;;;;;;;23.92;17.65;;;10.90;99.90;;;9.92;100.00;97577.56;5002139;28;20290;-74
2023/05/16 02:57:49;;;;;;;23.17;16.35;;;10.90;99.90;;;9.84;100.00;97589.97;5006090;28;20049;-75
2023/05/16 03:00:20;;;;;;;25.15;17.50;;;10.80;99.90;;;9.84;100.00;97587.38;4990110;28;20046;-74
2023/05/16 03:02:48;;;;;;;21.77;16.45;;;10.70;99.90;;;9.80;100.00;97591.00;5013010;28;20047;-74
2023/05/16 03:05:18;;;;;;;29.08;17.65;;;10.70;99.90;;;9.86;100.00;97595.94;4993640;28;20100;-74
2023/05/16 03:07:45;;;;;;;24.05;15.32;;;10.70;99.90;;;9.79;100.00;97591.91;4987514;28;20061;-74
2023/05/16 03:10:12;;;;;;;25.83;16.38;;;10.80;99.90;;;9.80;100.00;97591.84;5006113;28;20049;-74
2023/05/16 03:12:40;;;;;;;27.95;16.80;;;10.80;99.90;;;9.78;100.00;97604.03;5007895;28;20486;-75
2023/05/16 03:15:08;;;;;;;23.60;17.38;;;10.70;99.90;;;9.80;100.00;97603.97;5006157;28;20053;-74
2023/05/16 03:17:35;;;;;;;23.15;16.17;;;10.70;99.90;;;9.82;100.00;97596.97;4985344;28;20042;-74
2023/05/16 03:20:04;;;;;;;27.83;16.35;;;10.70;99.90;;;9.76;100.00;97602.38;4988653;28;20053;-75
2023/05/16 03:22:31;;;;;;;24.17;16.05;;;10.60;99.90;;;9.74;100.00;97602.47;4976185;28;20046;-74
2023/05/16 03:24:57;;;;;;;23.70;15.60;;;10.60;99.90;;;9.73;100.00;97605.94;4979335;28;20042;-74
2023/05/16 03:27:26;;;;;;;25.17;16.13;;;10.70;99.90;;;9.79;100.00;97605.72;4991135;28;20046;-75
2023/05/16 03:29:53;;;;;;;21.42;14.90;;;10.70;99.90;;;9.71;100.00;97602.56;5005094;28;20946;-74
2023/05/16 03:32:21;;;;;;;23.95;14.68;;;10.70;99.90;;;9.76;100.00;97608.44;4994244;28;20529;-74
2023/05/16 03:34:48;;;;;;;19.85;14.57;;;10.60;99.90;;;9.75;100.00;97608.47;4976674;28;20072;-74
2023/05/16 03:37:15;;;;;;;20.17;13.93;;;10.60;99.90;;;9.73;100.00;97620.66;5006934;28;20061;-75
2023/05/16 03:39:43;;;;;;;23.88;15.05;;;10.60;99.90;;;9.66;100.00;97617.44;4990071;28;20145;-75
2023/05/16 03:42:10;;;;;;;22.35;14.13;;;10.60;99.90;;;9.78;100.00;97613.53;4988896;28;20539;-75
2023/05/16 03:44:37;;;;;;;21.92;13.98;;;10.60;99.90;;;9.68;100.00;97614.81;4989197;28;20054;-74
2023/05/16 03:47:05;;;;;;;19.92;13.65;;;10.60;99.90;;;9.72;100.00;97618.97;5007265;28;20054;-75
2023/05/16 03:49:32;;;;;;;19.02;14.15;;;10.60;99.90;;;9.68;100.00;97609.63;4988907;28;20042;-74
2023/05/16 03:51:59;;;;;;;20.63;13.25;;;10.60;99.90;;;9.67;100.00;97613.97;4988192;28;20252;-75
2023/05/16 03:54:26;;;;;;;17.77;13.27;;;10.70;99.90;;;9.70;100.00;97624.22;4989023;28;20057;-75
2023/05/16 03:56:54;;;;;;;17.05;12.32;;;10.60;99.90;;;9.68;100.00;97620.84;5005904;28;20656;-75
2023/05/16 03:59:21;;;;;;;20.13;12.63;;;10.70;99.90;;;9.67;100.00;97610.50;5007603;28;20051;-75
2023/05/16 04:01:49;;;;;;;18.67;12.13;;;10.60;99.90;;;9.70;100.00;97623.38;4990385;28;20054;-75
2023/05/16 04:04:16;;;;;;;18.45;12.02;;;10.60;99.90;;;9.63;100.00;97623.59;5008007;28;20061;-75
2023/05/16 04:06:43;;;;;;;16.88;10.82;;;10.50;99.90;;;9.61;100.00;97624.56;5008492;28;20490;-75
2023/05/16 04:09:11;;;;;;;17.58;11.57;;;10.50;99.90;;;9.61;100.00;97628.00;4993424;28;20082;-75
2023/05/16 04:11:38;;;;;;;15.23;10.38;;;10.60;99.90;;;9.69;100.00;97632.88;4974813;28;20038;-74
2023/05/16 04:14:06;;;;;;;18.40;11.68;;;10.60;99.90;;;9.70;100.00;97634.59;5007358;28;20573;-74
2023/05/16 04:16:33;;;;;;;16.50;10.63;;;10.50;99.90;;;9.67;100.00;97624.34;4991772;28;20049;-75
2023/05/16 04:19:00;;;;;;;16.20;9.63;;;10.60;99.90;;;9.71;100.00;97638.00;4978565;28;20594;-75
2023/05/16 04:21:28;;;;;;;13.93;8.90;;;10.60;99.90;;;9.61;100.00;97635.78;4992120;28;20041;-75
2023/05/16 04:23:56;;;;;;;14.48;8.57;;;10.60;99.90;;;9.62;100.00;97650.44;5010844;28;20054;-74
2023/05/16 04:26:23;;;;;;;13.88;8.93;;;10.60;99.90;;;9.65;100.00;97644.28;4992172;28;20045;-74
2023/05/16 04:28:50;;;;;;;11.95;7.35;;;10.60;99.90;;;9.67;100.00;97642.50;4996801;28;20060;-75
2023/05/16 04:31:18;;;;;;;14.05;8.13;;;10.60;99.90;;;9.63;100.00;97646.94;4985602;28;20052;-75
2023/05/16 04:33:45;;;;;;;13.98;7.72;;;10.60;99.90;;;9.75;100.00;97649.97;5012174;28;20144;-75
2023/05/16 04:36:13;;;;;;;10.68;7.35;;;10.60;99.90;;;9.66;100.00;97648.56;4994358;28;20058;-75
2023/05/16 04:38:40;;;;;;;12.43;7.22;;;10.60;99.90;;;9.73;100.00;97651.75;5004615;28;20422;-74
2023/05/16 04:41:08;;;;;;;10.13;6.28;;;10.60;99.90;;;9.62;100.00;97647.84;5005616;28;20067;-75
2023/05/16 04:43:35;;;;;;;10.68;6.70;;;10.60;99.90;;;9.73;100.00;97651.75;4995541;28;20049;-75
2023/05/16 04:46:02;;;;;;;13.30;6.50;;;10.60;99.90;;;9.74;100.00;97654.31;4992302;28;20514;-74
2023/05/16 04:48:30;;;;;;;9.80;6.32;;;10.50;99.90;;;9.73;100.00;97654.34;5013358;28;20045;-74
2023/05/16 04:50:57;;;;;;;9.40;5.82;;;10.60;99.90;;;9.69;100.00;97651.00;4994599;28;20672;-75
2023/05/16 04:53:25;;;;;;;8.93;5.40;;;10.60;99.90;;;9.75;100.00;97655.13;5006626;28;20071;-75
2023/05/16 04:55:52;;;;;;;8.13;5.18;;;10.60;99.90;;;9.72;100.00;97650.94;4995882;28;20058;-74
2023/05/16 04:58:19;;;;;;;7.13;3.95;;;10.60;99.90;;;9.72;100.00;97652.69;4993182;28;20065;-75
2023/05/16 05:00:47;;;;;;;10.02;4.85;;;10.60;99.90;;;9.68;100.00;97657.13;4996598;28;20082;-75
2023/05/16 05:03:14;;;;;;;7.55;4.55;;;10.70;99.90;;;9.74;100.00;97654.31;4992095;28;20084;-75
2023/05/16 05:05:42;;;;;;;7.70;4.20;;;10.60;99.90;;;9.79;100.00;97652.38;4990378;28;20041;-75
2023/05/16 05:08:09;;;;;;;5.90;3.28;;;10.70;99.90;;;9.73;100.00;97660.38;4996710;28;20784;-75
2023/05/16 05:10:36;;;;;;;8.25;4.63;;;10.70;99.90;;;9.79;100.00;97661.91;5009888;28;20053;-74
2023/05/16 05:13:03;;;;;;;5.78;3.38;;;10.60;99.90;;;9.68;100.00;97654.53;5003112;28;20128;-75
2023/05/16 05:15:30;;;;;;;6.68;3.85;;;10.60;99.90;;;9.64;100.00;97668.50;4985531;28;20081;-75
2023/05/16 05:17:57;;;;;;;7.55;2.80;;;10.60;99.90;;;9.62;100.00;97668.56;4972580;28;20522;-75
2023/05/16 05:20:28;;;;;;;6.13;2.67;;;10.60;99.90;;;9.73;100.00;97667.31;4995029;28;20054;-74
2023/05/16 05:22:55;;;;;;;4.90;2.50;;;10.50;99.90;;;9.75;100.00;97671.53;4995454;28;20052;-75
2023/05/16 05:25:22;;;;;;;4.75;2.13;;;10.70;99.90;;;9.81;100.00;97667.88;4989952;28;20049;-75
2023/05/16 05:27:49;;;;;;;4.50;1.90;;;10.60;99.90;;;9.94;100.00;97665.66;5003820;28;20042;-75
2023/05/16 05:30:16;;;;;;;2.90;1.42;;;10.70;99.90;;;10.04;100.00;97660.03;5007849;28;20050;-75
2023/05/16 05:32:44;;;;;;;3.75;1.40;;;10.80;99.90;;;10.01;100.00;97662.78;4993505;28;20544;-75
2023/05/16 05:35:11;;;;;;;4.55;1.60;;;10.90;99.90;;;10.13;100.00;97648.47;4991958;28;20068;-74
2023/05/16 05:37:38;;;;;;;3.50;1.50;;;10.80;99.90;;;9.97;100.00;97643.03;4997876;28;20049;-74
2023/05/16 05:40:07;;;;;;;3.03;1.10;;;10.80;99.90;;;9.94;100.00;97642.31;4993767;28;20064;-75
2023/05/16 05:42:34;;;;;;;3.85;1.27;;;10.90;99.90;;;9.97;100.00;97643.03;4993313;28;20480;-75
2023/05/16 05:45:01;;;;;;;4.07;1.10;;;10.80;99.90;;;9.97;100.00;97640.44;4994325;28;20066;-75
2023/05/16 05:47:29;;;;;;;3.40;1.33;;;10.90;99.90;;;9.96;100.00;97649.13;5004654;28;20533;-75
2023/05/16 05:49:56;;;;;;;3.40;1.40;;;10.90;99.90;;;9.92;100.00;97644.09;4981632;28;20709;-75
2023/05/16 05:52:23;;;;;;;4.03;1.20;;;10.70;99.90;;;9.90;100.00;97646.78;5000106;28;20457;-75
2023/05/16 05:54:50;;;;;;;5.18;1.27;;;10.80;99.90;;;9.89;100.00;97644.25;4988098;28;20125;-75
2023/05/16 05:57:22;;;;;;;3.03;1.10;;;10.80;99.90;;;9.83;100.00;97647.94;4981833;28;20054;-75
2023/05/16 05:59:49;;;;;;;3.38;0.95;;;10.80;99.90;;;9.85;100.00;97653.88;4992022;28;20050;-75
2023/05/16 06:02:16;;;;;;;1.50;1.10;;;10.90;99.90;;;9.89;100.00;97652.03;4992277;28;20520;-75
2023/05/16 06:04:44;;;;;;;2.60;1.00;;;10.70;99.90;;;9.96;100.00;97653.47;5004188;28;20056;-75
2023/05/16 06:07:11;;;;;;;3.75;1.15;;;10.80;99.90;;;9.88;100.00;97648.59;4988189;28;20053;-75
2023/05/16 06:09:39;;;;;;;2.90;0.80;;;10.90;99.90;;;9.89;100.00;97654.63;4991491;28;20394;-74
2023/05/16 06:12:07;;;;;;;2.55;1.08;;;10.80;99.90;;;10.04;100.00;97656.63;4990034;28;20050;-75
2023/05/16 06:14:34;;;;;;;1.60;0.98;;;10.80;99.90;;;9.86;100.00;97652.97;4978536;28;20553;-74
2023/05/16 06:17:02;;;;;;;3.47;1.20;;;10.80;99.90;;;9.87;100.00;97657.25;4991608;28;20061;-74
2023/05/16 06:19:29;;;;;;;2.83;1.15;;;10.70;99.90;;;9.82;100.00;97654.00;4990452;28;20053;-75
2023/05/16 06:21:56;;;;;;;2.15;1.00;;;10.70;99.90;;;9.86;100.00;97652.97;5011712;28;20057;-74
2023/05/16 06:24:23;;;;;;;2.83;1.50;;;10.80;99.90;;;9.86;100.00;97663.34;4996112;28;20723;-74
2023/05/16 06:26:51;;;;;;;2.38;1.60;;;10.70;99.90;;;9.76;100.00;97669.78;4995672;28;20524;-75
2023/05/16 06:29:18;;;;;;;2.47;1.30;;;10.70;99.90;;;9.74;100.00;97676.75;5003634;28;20422;-75
2023/05/16 06:31:48;;;;;;;4.15;1.45;;;10.70;99.90;;;9.67;100.00;97664.94;5006472;28;20052;-75
2023/05/16 06:34:15;;;;;;;2.83;1.08;;;10.70;99.90;;;9.69;100.00;97674.34;5001688;28;20046;-74
2023/05/16 06:36:44;;;;;;;1.88;1.20;;;10.70;99.90;;;9.69;100.00;97676.94;5008346;28;20068;-74
2023/05/16 06:39:11;;;;;;;2.53;0.95;;;10.60;99.90;;;9.54;100.00;97678.38;5012515;28;20132;-74
2023/05/16 06:41:38;;;;;;;3.42;1.00;;;10.60;99.90;;;9.53;100.00;97689.63;4980860;28;20516;-75
2023/05/16 06:44:06;;;;;;;1.63;0.98;;;10.50;99.90;;;9.58;100.00;97689.47;5014696;28;20054;-74
2023/05/16 06:46:33;;;;;;;1.02;0.70;;;10.50;99.90;;;9.55;100.00;97692.16;4994567;28;20057;-74
2023/05/16 06:49:00;;;;;;;1.95;0.85;;;10.40;99.90;;;9.53;100.00;97694.78;4997407;28;20056;-74
2023/05/16 06:51:27;;;;;;;1.23;0.60;;;10.50;99.90;;;9.47;100.00;97701.97;4995397;28;20053;-74
2023/05/16 06:53:54;;;;;;;1.20;0.80;;;10.50;99.90;;;9.43;100.00;97689.13;5008014;28;20053;-74
2023/05/16 06:56:22;;;;;;;1.45;0.70;;;10.40;99.90;;;9.40;100.00;97701.34;5003393;28;20100;-74
2023/05/16 06:58:50;;;;;;;1.30;0.70;;;10.40;99.90;;;9.40;100.00;97704.78;4986547;28;20573;-75
2023/05/16 07:01:17;;;;;;;1.33;0.80;;;10.40;99.90;;;9.44;100.00;97710.69;5008822;28;20129;-74
2023/05/16 07:03:44;;;;;;;1.85;0.70;;;10.30;99.90;;;9.45;100.00;97711.53;4999331;28;20045;-74
2023/05/16 07:06:11;;;;;;;1.05;0.70;;;10.40;99.90;;;9.41;100.00;97710.81;5005690;28;20065;-74
2023/05/16 07:08:40;;;;;;;1.67;0.52;;;10.40;99.90;;;9.21;100.00;97704.59;4995389;28;20049;-74
2023/05/16 07:11:10;;;;;;;1.40;0.80;;;10.40;99.90;;;9.35;100.00;97719.66;4996140;28;20775;-75
2023/05/16 07:13:37;;;;;;;1.40;0.70;;;10.30;99.90;;;9.40;100.00;97715.16;4997726;28;20444;-75
2023/05/16 07:16:06;;;;;;;1.10;0.70;;;10.30;99.90;;;9.32;100.00;97722.31;5003513;28;20139;-74
2023/05/16 07:18:34;;;;;;;0.98;0.60;;;10.30;99.90;;;9.31;100.00;97725.00;5008747;28;20082;-74
2023/05/16 07:21:01;;;;;;;1.00;0.70;;;10.20;99.90;;;9.26;100.00;97734.66;4994373;28;20054;-74
2023/05/16 07:23:28;;;;;;;1.30;0.70;;;10.10;99.90;;;9.33;100.00;97737.00;4998671;28;20069;-74
2023/05/16 07:25:55;;;;;;;1.77;0.80;;;10.10;99.90;;;9.09;100.00;97736.06;4988927;28;20049;-75
2023/05/16 07:28:23;;;;;;;1.25;0.70;;;10.20;99.90;;;9.26;100.00;97740.69;4989965;28;20073;-75
2023/05/16 07:30:50;;;;;;;0.98;0.65;;;10.20;99.90;;;9.16;100.00;97742.72;5012611;28;20177;-74
2023/05/16 07:33:17;;;;;;;1.83;0.57;;;10.20;99.90;;;9.17;100.00;97744.44;5014093;28;20042;-75
2023/05/16 07:35:45;;;;;;;0.90;0.60;;;10.20;99.90;;;9.17;100.00;97747.03;4996762;28;20081;-75
2023/05/16 07:38:12;;;;;;;1.08;0.50;;;10.20;99.90;;;9.17;100.00;97752.22;4987498;28;20470;-74
2023/05/16 07:40:40;;;;;;;1.17;0.52;;;10.10;99.90;;;9.08;100.00;97752.53;4999579;28;20132;-74
2023/05/16 07:43:07;;;;;;;0.88;0.57;;;10.20;99.90;;;9.13;100.00;97752.38;5003569;28;20115;-75
2023/05/16 07:45:34;;;;;;;2.47;0.57;;;10.10;99.90;;;9.22;100.00;97762.41;5010055;28;20100;-74
2023/05/16 07:48:04;;;;;;;1.20;0.57;;;10.10;99.90;;;9.02;100.00;97765.66;4980098;28;20119;-75
2023/05/16 07:50:32;;;;;;;0.73;0.50;;;10.10;99.90;;;8.96;100.00;97766.72;4994707;28;20176;-74
2023/05/16 07:52:59;;;;;;;0.82;0.60;;;10.00;99.90;;;9.04;100.00;97771.66;5000004;28;20045;-74
2023/05/16 07:55:28;;;;;;;3.20;0.50;;;10.00;99.90;;;8.98;100.00;97777.03;4991851;28;20046;-75
2023/05/16 07:57:55;;;;;;;2.08;0.40;;;10.00;99.90;;;9.02;100.00;97767.41;5011225;28;20121;-75
2023/05/16 08:00:25;;;;;;;0.75;0.40;;;10.00;99.90;;;8.96;100.00;97764.16;4972838;28;20834;-75
2023/05/16 08:02:52;;;;;;;0.88;0.50;;;10.10;99.90;;;9.04;100.00;97769.06;4988656;28;20511;-74
2023/05/16 08:05:20;;;;;;;0.75;0.40;;;10.00;99.90;;;9.07;100.00;97773.28;4992393;28;20431;-74
2023/05/16 08:07:47;;;;;;;2.70;0.40;;;10.00;99.90;;;9.05;100.00;97772.47;5004869;28;20070;-75
2023/05/16 08:10:14;;;;;;;0.90;0.70;;;9.90;99.90;;;9.00;100.00;97763.13;5007218;28;20184;-75
2023/05/16 08:12:42;;;;;;;1.33;0.52;;;9.90;99.90;;;8.96;100.00;97763.28;5005703;28;20061;-75
2023/05/16 08:15:10;;;;;;;1.05;0.50;;;10.00;99.90;;;9.07;100.00;97770.69;4993921;28;20592;-75
2023/05/16 08:17:37;;;;;;;1.35;0.50;;;10.00;99.90;;;9.03;100.00;97769.94;5008418;28;20046;-75
2023/05/16 08:20:05;;;;;;;2.42;0.50;;;10.00;99.90;;;9.12;100.00;97773.97;5006835;28;20562;-75
2023/05/16 08:22:32;;;;;;;1.17;0.52;;;10.00;99.90;;;9.03;100.00;97782.03;4991673;28;20506;-74
2023/05/16 08:25:00;;;;;;;2.65;0.77;;;10.00;99.90;;;9.12;100.00;97773.97;5005173;28;20050;-75
2023/05/16 08:27:28;;;;;;;3.13;0.60;;;10.00;99.90;;;9.07;100.00;97762.94;5017324;28;20469;-75
2023/05/16 08:29:55;;;;;;;1.92;0.60;;;9.90;99.90;;;9.06;100.00;97767.25;4998827;28;20054;-75
2023/05/16 08:32:22;;;;;;;1.40;0.60;;;9.90;99.90;;;9.09;100.00;97774.91;4996458;28;20045;-75
2023/05/16 08:34:49;;;;;;;2.67;0.52;;;10.00;99.90;;;8.98;100.00;97769.25;4999718;28;20050;-75
2023/05/16 08:37:16;;;;;;;1.90;0.60;;;10.00;99.90;;;8.96;100.00;97760.69;4986377;28;20068;-75
2023/05/16 08:39:45;;;;;;;2.85;0.60;;;10.10;99.90;;;9.38;100.00;97760.97;4988515;28;20057;-75
2023/05/16 08:42:12;;;;;;;2.80;0.70;;;10.10;99.90;;;9.51;100.00;97758.81;5004820;28;20077;-75
2023/05/16 08:44:39;;;;;;;2.92;0.80;;;10.30;99.90;;;9.34;100.00;97761.13;5016101;28;20509;-74
2023/05/16 08:47:20;;;;;;;2.55;0.70;;;10.30;99.90;;;9.42;100.00;97756.56;5005377;28;20061;-74
2023/05/16 08:49:50;;;;;;;3.13;0.60;;;10.40;99.90;;;9.34;100.00;97764.56;4994956;28;20418;-75
2023/05/16 08:52:20;;;;;;;0.80;0.40;;;10.40;99.90;;;9.76;100.00;97760.50;4971277;28;20048;-74
2023/05/16 08:54:49;;;;;;;1.30;0.40;;;10.40;99.90;;;9.64;100.00;97757.44;4991908;28;20061;-74
2023/05/16 08:57:36;;;;;;;1.13;0.50;;;10.50;99.90;;;9.53;100.00;97757.00;4991720;28;20057;-75
2023/05/16 09:00:10;;;;;;;2.85;0.60;;;10.60;99.90;;;9.56;100.00;97766.44;4982995;28;20399;-75
2023/05/16 09:02:43;;;;;;;1.40;0.52;;;10.40;99.90;;;9.41;100.00;97757.44;4987885;28;20061;-73
2023/05/16 09:05:13;;;;;;;1.00;0.50;;;10.50;99.90;;;9.45;100.00;97766.78;4987763;28;20607;-74
2023/05/16 09:07:42;;;;;;;1.50;0.52;;;10.50;99.90;;;9.35;100.00;97779.22;4987234;28;20077;-74
2023/05/16 09:10:10;;;;;;;1.75;0.50;;;10.40;99.90;;;9.16;100.00;97763.44;4985683;28;20560;-74
2023/05/16 09:12:40;;;;;;;2.65;0.50;;;10.30;99.90;;;9.26;100.00;97763.13;4996702;28;20042;-74
2023/05/16 09:15:12;;;;;;;1.48;0.60;;;10.20;99.90;;;9.10;100.00;97765.41;5013083;28;20446;-75
2023/05/16 09:17:46;;;;;;;2.67;0.55;;;10.20;99.90;;;9.13;100.00;97775.69;4981294;28;20053;-74
2023/05/16 09:20:18;;;;;;;3.88;0.60;;;10.20;99.90;;;9.13;100.00;97768.75;4986484;28;20050;-74
2023/05/16 09:22:56;;;;;;;1.80;0.60;;;10.10;99.90;;;9.10;100.00;97780.94;5006972;28;20180;-74
2023/05/16 09:25:27;;;;;;;3.00;0.60;;;10.10;99.90;;;9.14;100.00;97787.72;4994224;28;20049;-74
2023/05/16 09:28:00;;;;;;;1.83;0.40;;;10.10;99.90;;;8.84;100.00;97782.66;4988355;28;20125;-75
2023/05/16 09:30:32;;;;;;;3.15;1.13;;;10.10;99.90;;;8.81;100.00;97793.09;4991547;28;20058;-76
2023/05/16 09:33:00;;;;;;;2.60;0.50;;;9.90;99.90;;;9.00;100.00;97791.59;4996326;28;20050;-75
2023/05/16 09:35:27;;;;;;;1.77;0.50;;;9.90;99.90;;;9.09;100.00;97792.22;4988761;28;20045;-75
2023/05/16 09:37:57;;;;;;;2.60;0.70;;;9.90;99.90;;;9.04;100.00;97801.88;4999751;28;20116;-76
2023/05/16 09:40:25;;;;;;;2.25;0.70;;;9.90;99.90;;;8.86;100.00;97808.50;4998488;28;20050;-75
2023/05/16 09:43:06;;;;;;;2.58;0.65;;;9.90;99.90;;;8.79;100.00;97813.84;5014401;28;20073;-75
2023/05/16 09:45:35;;;;;;;2.15;0.60;;;9.90;99.90;;;8.84;100.00;97815.47;4978380;28;20743;-75
2023/05/16 09:48:08;;;;;;;2.85;0.80;;;9.90;99.90;;;8.84;100.00;97833.56;5009211;28;20046;-75
2023/05/16 09:50:36;;;;;;;4.25;0.90;;;9.80;99.90;;;8.73;100.00;97831.31;4989845;28;20112;-74
2023/05/16 09:53:04;;;;;;;2.28;1.00;;;9.90;99.90;;;8.72;100.00;97842.56;4978974;28;20058;-75
2023/05/16 09:55:32;;;;;;;3.70;1.20;;;9.80;99.90;;;8.67;100.00;97858.25;4991494;28;20537;-74
2023/05/16 09:58:00;;;;;;;3.45;0.90;;;9.70;99.90;;;8.91;100.00;97858.38;4989246;28;20060;-75
2023/05/16 10:00:32;;;;;;;3.38;1.20;;;9.80;99.90;;;8.81;100.00;97854.38;4998585;28;20069;-75
2023/05/16 10:03:02;;;;;;;2.45;1.00;;;9.80;99.90;;;8.77;100.00;97859.63;4998776;28;20065;-75
2023/05/16 10:05:32;;;;;;;4.50;1.40;;;9.90;99.90;;;8.93;100.00;97854.84;4993308;28;20050;-74
2023/05/16 10:08:03;;;;;;;2.78;1.00;;;9.90;99.90;;;8.84;100.00;97857.72;4995074;28;20136;-75
2023/05/16 10:10:34;;;;;;;4.22;1.35;;;9.90;99.90;;;9.36;100.00;97852.59;5008333;28;20046;-75
2023/05/16 10:13:05;;;;;;;5.18;1.25;;;10.00;99.90;;;9.77;100.00;97848.59;4984677;28;20046;-75
2023/05/16 10:15:35;;;;;;;4.13;1.40;;;10.30;99.90;;;9.64;100.00;97848.16;4990470;28;20130;-75
2023/05/16 10:18:04;;;;;;;4.65;1.08;;;10.50;99.90;;;9.64;100.00;97835.22;5003480;28;20054;-75
2023/05/16 10:20:31;;;;;;;2.65;1.02;;;10.50;99.90;;;9.43;100.00;97823.84;4990453;28;20050;-75